Vernon, TX

2:10 PM CST on February 14, 2016 (GMT -0600)
KD5PBR Turner Farm | | Change Station
CLOSE
Current Station
Personal Weather Station
Location: Odell, TX
Elevation: 1341 ft
Nearby Weather Stations

Elev 1341 ft 34.36 °N, 99.42 °W | Updated 6 seconds ago

Partly Cloudy
Partly Cloudy
53.6 °F
Feels Like 53.6 °F
N
3.0
Wind Variable Wind from NNE
Gusts 3.0 mph

Today
High -- | Low -- °F
--% Chance of Precip.
Yesterday
High -- | Low -- °F
Precip. -- in
Pressure 29.91 in
Visibility 10.0 miles
Clouds Clear
Dew Point 40 °F
Humidity 59%
Rainfall 0.00 in
Snow Depth Not available.
7:24 AM 6:19 PM
Waxing Crescent, 45% visible
METAR KF05 141955Z AUTO 01011KT 10SM CLR 12/01 A2991 RMK AO1 T01180009
Pressure 29.91 in
Visibility 10.0 miles
Clouds Clear
Dew Point 40 °F
Humidity 59%
Rainfall 0.00 in
Snow Depth Not available.
7:24 AM 6:19 PM
Waxing Crescent, 45% visible
METAR KF05 141955Z AUTO 01011KT 10SM CLR 12/01 A2991 RMK AO1 T01180009

10-Day Weather Forecast

Almanac

Astronomy

Feb. 14, 2016 Rise Set
Actual Time
Civil Twilight
Nautical Twilight
Astronomical Twilight
Moon
Length of Visible Light
Length of Day
Tomorrow will be .
, % of the Moon is Illuminated

Today's Extremes

State Highs State Lows

Community

WunderPhotos

Upload Photos

1,892,880 photos uploaded!

WunderBlog® & News

Nearby

Air Quality

  Air Quality AQ Index Pollutant
Not available.

Snow Depth

Station Depth Elevation

Earthquake Activity

City Distance Mag. Time & Date
Minimum magnitude displayed is 2.5.

Coastal Water Temperatures

Place Temperature

Stations

Nearby Weather Stations

Station Location Temp. Windchill Dew Point Humidity Wind Precip. Elev Updated Type
                   

Watches & Warnings

There are currently no watches in effect.